Time;durP1;ratioP1;P1;durP2;ratioP2;P2;SDS_P1;SDS_P2;PMS_P1;PMS_P2;Temp;Humidity;BMP_temperature;BMP_pressure;BME280_temperature;BME280_humidity;BME280_pressure;Samples;Min_cycle;Max_cycle;Signal;HPM_P1;HPM_P2
2022/08/30 00:03:15;;;;;;;7.95;7.15;;;18.50;99.90;;;;;;4967941;28;20248;-88
2022/08/30 00:05:42;;;;;;;7.68;6.90;;;18.40;99.90;;;;;;4994541;28;20219;-88
2022/08/30 00:08:09;;;;;;;8.32;7.45;;;18.50;99.90;;;;;;4994386;28;20171;-88
2022/08/30 00:10:36;;;;;;;8.00;7.18;;;18.40;99.90;;;;;;4994508;28;20206;-89
2022/08/30 00:13:02;;;;;;;8.77;7.00;;;18.40;99.90;;;;;;5010551;28;20183;-88
2022/08/30 00:15:28;;;;;;;8.63;6.55;;;18.50;99.90;;;;;;4994527;28;20198;-88
2022/08/30 00:17:55;;;;;;;7.55;6.75;;;18.50;99.90;;;;;;4994075;28;20235;-88
2022/08/30 00:20:26;;;;;;;8.18;7.38;;;18.50;99.90;;;;;;4994289;28;20241;-88
2022/08/30 00:22:53;;;;;;;7.85;7.10;;;18.50;99.90;;;;;;4993991;28;20191;-88
2022/08/30 00:25:19;;;;;;;8.02;7.28;;;18.50;99.90;;;;;;4994168;28;20207;-88
2022/08/30 00:27:45;;;;;;;8.40;7.32;;;18.50;99.90;;;;;;4993989;28;20175;-88
2022/08/30 00:30:13;;;;;;;8.43;7.68;;;18.50;99.90;;;;;;4994124;28;20279;-88
2022/08/30 00:32:39;;;;;;;9.10;7.30;;;18.50;99.90;;;;;;4994132;28;20203;-88
2022/08/30 00:35:07;;;;;;;7.93;7.10;;;18.50;99.90;;;;;;4994426;28;20183;-88
2022/08/30 00:37:33;;;;;;;8.20;7.40;;;18.50;99.90;;;;;;4994246;28;20187;-88
2022/08/30 00:39:59;;;;;;;8.18;7.22;;;18.50;99.90;;;;;;5011114;28;20183;-88
2022/08/30 00:42:25;;;;;;;7.95;7.25;;;18.40;99.90;;;;;;4995326;28;20203;-88
2022/08/30 00:44:52;;;;;;;8.30;7.47;;;18.40;99.90;;;;;;5011233;28;20824;-88
2022/08/30 00:47:18;;;;;;;7.78;7.07;;;18.30;99.90;;;;;;4994837;28;20218;-88
2022/08/30 00:49:53;;;;;;;11.30;7.90;;;18.20;99.90;;;;;;4994796;28;20179;-88
2022/08/30 00:52:22;;;;;;;8.13;7.32;;;18.20;99.90;;;;;;4993695;28;20202;-88
2022/08/30 00:54:50;;;;;;;9.55;7.93;;;18.10;99.90;;;;;;5010066;28;20199;-89
2022/08/30 00:57:17;;;;;;;10.35;8.00;;;18.10;99.90;;;;;;4993406;28;20183;-88
2022/08/30 00:59:48;;;;;;;9.48;8.02;;;18.00;99.90;;;;;;4993665;28;20187;-88
2022/08/30 01:02:17;;;;;;;8.80;7.20;;;18.00;99.90;;;;;;4993813;28;20207;-88
2022/08/30 01:04:44;;;;;;;8.48;7.22;;;18.00;99.90;;;;;;4994041;28;20230;-88
2022/08/30 01:07:10;;;;;;;8.52;7.65;;;17.90;99.90;;;;;;5009605;28;20183;-88
2022/08/30 01:09:36;;;;;;;8.88;7.30;;;17.90;99.90;;;;;;4993710;28;20293;-88
2022/08/30 01:12:04;;;;;;;8.25;7.47;;;17.90;99.90;;;;;;4993786;28;20203;-88
2022/08/30 01:14:32;;;;;;;8.15;7.45;;;17.80;99.90;;;;;;4993882;28;20176;-88
2022/08/30 01:17:00;;;;;;;8.10;7.35;;;17.80;99.90;;;;;;4993501;28;20191;-88
2022/08/30 01:19:36;;;;;;;8.70;7.78;;;17.80;99.90;;;;;;4993661;28;20210;-88
2022/08/30 01:22:19;;;;;;;9.63;8.00;;;17.70;99.90;;;;;;4993301;28;20213;-88
2022/08/30 01:24:46;;;;;;;8.82;7.97;;;17.70;99.90;;;;;;4993201;28;20210;-89
2022/08/30 01:27:15;;;;;;;8.40;7.60;;;17.70;99.90;;;;;;4993086;28;20183;-88
2022/08/30 01:29:43;;;;;;;8.80;7.50;;;17.60;99.90;;;;;;4993616;28;20183;-88
2022/08/30 01:32:18;;;;;;;8.77;7.23;;;17.60;99.90;;;;;;5009385;28;20308;-88
2022/08/30 01:35:38;;;;;;;7.90;7.10;;;17.50;99.90;;;;;;4993185;28;20210;-88
2022/08/30 01:38:04;;;;;;;8.87;7.97;;;17.40;99.90;;;;;;4992953;28;20191;-88
2022/08/30 01:40:30;;;;;;;8.32;7.45;;;17.40;99.90;;;;;;5009052;28;20632;-88
2022/08/30 01:42:56;;;;;;;9.98;8.98;;;17.40;99.90;;;;;;4993015;28;20224;-88
2022/08/30 01:45:21;;;;;;;9.40;8.50;;;17.30;99.90;;;;;;4993071;28;20222;-88
2022/08/30 01:47:48;;;;;;;9.43;8.00;;;17.30;99.90;;;;;;4992777;28;20226;-88
2022/08/30 01:50:14;;;;;;;9.30;8.40;;;17.30;99.90;;;;;;4992718;28;20182;-88
2022/08/30 01:52:40;;;;;;;8.50;7.60;;;17.20;99.90;;;;;;5009550;28;20203;-88
2022/08/30 01:55:07;;;;;;;9.43;8.07;;;17.10;99.90;;;;;;4992768;28;20191;-88
2022/08/30 01:57:33;;;;;;;8.93;8.03;;;17.10;99.90;;;;;;4992952;28;20183;-88
2022/08/30 01:59:59;;;;;;;8.45;7.68;;;17.10;99.90;;;;;;4993081;28;20195;-89
2022/08/30 02:02:28;;;;;;;10.93;8.00;;;17.10;99.90;;;;;;5009499;28;20207;-88
2022/08/30 02:04:55;;;;;;;8.30;7.50;;;17.00;99.90;;;;;;4995661;28;20284;-88
2022/08/30 02:07:22;;;;;;;8.00;7.20;;;17.00;99.90;;;;;;5012826;28;20271;-88
2022/08/30 02:09:50;;;;;;;8.13;7.33;;;17.00;99.90;;;;;;4996259;28;20189;-88
2022/08/30 02:12:16;;;;;;;9.70;7.83;;;17.00;99.90;;;;;;4996784;28;20238;-88
2022/08/30 02:14:42;;;;;;;8.87;7.97;;;17.10;99.90;;;;;;4996854;28;20201;-88
2022/08/30 02:17:11;;;;;;;9.30;7.70;;;17.10;99.90;;;;;;5012643;28;20328;-88
2022/08/30 02:19:38;;;;;;;10.23;7.93;;;17.00;99.90;;;;;;4996541;28;20183;-88
2022/08/30 02:22:04;;;;;;;8.07;7.27;;;17.00;99.90;;;;;;4995877;28;20257;-88
2022/08/30 02:24:30;;;;;;;7.60;6.90;;;17.00;99.90;;;;;;4996534;28;20219;-88
2022/08/30 02:26:56;;;;;;;8.53;7.60;;;17.00;99.90;;;;;;5012453;28;20230;-88
2022/08/30 02:29:24;;;;;;;9.27;8.20;;;17.00;99.90;;;;;;4996278;28;20209;-88
2022/08/30 02:31:50;;;;;;;8.33;7.40;;;17.00;99.90;;;;;;5012525;28;20198;-88
2022/08/30 02:34:16;;;;;;;9.37;7.97;;;17.10;99.90;;;;;;4996200;28;20249;-88
2022/08/30 02:36:43;;;;;;;8.90;8.00;;;17.10;99.90;;;;;;4995630;28;20183;-88
2022/08/30 02:39:11;;;;;;;9.03;8.10;;;17.10;99.90;;;;;;4996065;28;20318;-88
2022/08/30 02:41:38;;;;;;;8.73;7.90;;;17.10;99.90;;;;;;4996022;28;20234;-88
2022/08/30 02:44:05;;;;;;;10.80;8.80;;;17.10;99.90;;;;;;4996021;28;20191;-88
2022/08/30 02:46:31;;;;;;;9.73;8.73;;;17.10;99.90;;;;;;4995984;28;20175;-88
2022/08/30 02:48:58;;;;;;;8.50;7.70;;;17.00;99.90;;;;;;4995974;28;20172;-88
2022/08/30 02:51:24;;;;;;;9.53;8.03;;;17.00;99.90;;;;;;4995590;28;20200;-88
2022/08/30 02:53:50;;;;;;;7.97;7.27;;;17.00;99.90;;;;;;4995893;28;20183;-88
2022/08/30 02:56:16;;;;;;;9.47;7.57;;;16.90;99.90;;;;;;4995807;28;20235;-88
2022/08/30 02:58:43;;;;;;;8.40;7.60;;;16.90;99.90;;;;;;4995503;28;20210;-88
2022/08/30 03:01:12;;;;;;;8.60;7.50;;;16.80;99.90;;;;;;4995590;28;20203;-88
2022/08/30 03:03:39;;;;;;;8.43;7.60;;;16.80;99.90;;;;;;5012119;28;20175;-88
2022/08/30 03:06:05;;;;;;;8.27;7.47;;;16.70;99.90;;;;;;4995308;28;20696;-88
2022/08/30 03:08:32;;;;;;;8.83;7.93;;;16.60;99.90;;;;;;5011771;28;20247;-88
2022/08/30 03:10:59;;;;;;;8.77;7.60;;;16.60;99.90;;;;;;4995599;28;20203;-88
2022/08/30 03:13:25;;;;;;;8.27;7.40;;;16.60;99.90;;;;;;4995636;28;20186;-88
2022/08/30 03:15:51;;;;;;;9.67;7.50;;;16.50;99.90;;;;;;4994789;28;20209;-88
2022/08/30 03:18:18;;;;;;;9.80;8.50;;;16.50;99.90;;;;;;4995172;28;20183;-88
2022/08/30 03:20:45;;;;;;;10.43;8.23;;;16.50;99.90;;;;;;4995351;28;20203;-88
2022/08/30 03:23:11;;;;;;;8.90;7.90;;;16.50;99.90;;;;;;4995157;28;20198;-88
2022/08/30 03:25:38;;;;;;;11.07;9.07;;;16.50;99.90;;;;;;4995235;28;20211;-88
2022/08/30 03:28:05;;;;;;;9.93;8.10;;;16.40;99.90;;;;;;4995031;28;20190;-88
2022/08/30 03:30:32;;;;;;;8.37;7.53;;;16.40;99.90;;;;;;4995098;28;20237;-88
2022/08/30 03:32:59;;;;;;;7.90;7.13;;;16.50;99.90;;;;;;4994969;28;20198;-88
2022/08/30 03:35:25;;;;;;;8.77;7.87;;;16.50;99.90;;;;;;4994965;28;20341;-88
2022/08/30 03:37:52;;;;;;;8.73;7.80;;;16.50;99.90;;;;;;4995111;28;20195;-88
2022/08/30 03:40:19;;;;;;;9.00;7.67;;;16.50;99.90;;;;;;4994981;28;20206;-89
2022/08/30 03:42:45;;;;;;;8.73;7.93;;;16.40;99.90;;;;;;5011263;28;20176;-89
2022/08/30 03:45:12;;;;;;;11.53;8.70;;;16.30;99.90;;;;;;4995055;28;20207;-88
2022/08/30 03:47:38;;;;;;;12.73;8.13;;;16.30;99.90;;;;;;5010754;28;20183;-88
2022/08/30 03:50:05;;;;;;;11.07;8.10;;;16.20;99.90;;;;;;4995090;28;20187;-88
2022/08/30 03:52:31;;;;;;;11.13;9.07;;;16.20;99.90;;;;;;5011258;28;20191;-87
2022/08/30 03:54:59;;;;;;;10.90;8.10;;;16.10;99.90;;;;;;4994642;28;20190;-88
2022/08/30 03:57:25;;;;;;;8.90;8.00;;;16.10;99.90;;;;;;4994276;28;20213;-88
2022/08/30 03:59:51;;;;;;;9.10;8.20;;;16.10;99.90;;;;;;4994691;28;20191;-88
2022/08/30 04:02:17;;;;;;;9.37;8.43;;;16.00;99.90;;;;;;5009634;28;20210;-88
2022/08/30 04:04:43;;;;;;;9.70;8.63;;;16.00;99.90;;;;;;5011100;28;20237;-88
2022/08/30 04:07:09;;;;;;;11.50;8.80;;;16.00;99.90;;;;;;4994362;28;20187;-88
2022/08/30 04:09:35;;;;;;;10.43;9.43;;;16.00;99.90;;;;;;5011011;28;20183;-88
2022/08/30 04:12:01;;;;;;;9.43;8.43;;;16.00;99.90;;;;;;5010730;28;20203;-88
2022/08/30 04:14:26;;;;;;;10.20;9.00;;;16.00;99.90;;;;;;4994963;28;20183;-88
2022/08/30 04:16:52;;;;;;;10.67;9.57;;;16.00;99.90;;;;;;5011072;28;20194;-88
2022/08/30 04:19:18;;;;;;;11.13;9.07;;;15.90;99.90;;;;;;5011719;28;20171;-87
2022/08/30 04:21:44;;;;;;;11.17;9.70;;;15.90;99.90;;;;;;4995721;28;20210;-88
2022/08/30 04:24:11;;;;;;;10.07;9.10;;;15.90;99.90;;;;;;4995222;28;20186;-88
2022/08/30 04:26:37;;;;;;;12.33;10.27;;;15.80;99.90;;;;;;4994811;28;20195;-88
2022/08/30 04:29:03;;;;;;;11.90;9.70;;;15.90;99.90;;;;;;5010801;28;20180;-87
2022/08/30 04:31:30;;;;;;;11.00;9.93;;;15.80;99.90;;;;;;5010562;28;20294;-88
2022/08/30 04:33:56;;;;;;;10.63;9.50;;;15.80;99.90;;;;;;5010716;28;20182;-88
2022/08/30 04:36:22;;;;;;;10.10;8.90;;;15.80;99.90;;;;;;4994148;28;20191;-89
2022/08/30 04:38:48;;;;;;;10.73;9.10;;;15.80;99.90;;;;;;5010538;28;20254;-88
2022/08/30 04:41:16;;;;;;;11.17;8.87;;;15.80;99.90;;;;;;4993993;28;20195;-88
2022/08/30 04:43:45;;;;;;;9.53;8.60;;;15.80;99.90;;;;;;5010184;28;20182;-87
2022/08/30 04:46:12;;;;;;;9.50;8.53;;;15.80;99.90;;;;;;4993843;28;20222;-87
2022/08/30 04:48:39;;;;;;;10.27;8.20;;;15.80;99.90;;;;;;4993833;28;20183;-88
2022/08/30 04:51:07;;;;;;;9.40;8.47;;;15.70;99.90;;;;;;4994181;28;20199;-88
2022/08/30 04:53:33;;;;;;;9.80;8.80;;;15.70;99.90;;;;;;4993777;28;20214;-87
2022/08/30 04:56:00;;;;;;;10.13;9.03;;;15.70;99.90;;;;;;4993839;28;20280;-87
2022/08/30 04:58:25;;;;;;;10.20;8.80;;;15.70;99.90;;;;;;5009615;28;20270;-88
2022/08/30 05:00:51;;;;;;;10.73;8.50;;;15.70;99.90;;;;;;4993538;28;20199;-88
2022/08/30 05:03:17;;;;;;;10.00;8.47;;;15.70;99.90;;;;;;4993641;28;20179;-88
2022/08/30 05:05:50;;;;;;;10.43;8.67;;;15.60;99.90;;;;;;4993586;28;20207;-88
2022/08/30 05:08:20;;;;;;;9.23;8.33;;;15.60;99.90;;;;;;5009708;28;20664;-87
2022/08/30 05:10:48;;;;;;;10.43;9.27;;;15.60;99.90;;;;;;4993372;28;20207;-87
2022/08/30 05:13:16;;;;;;;11.50;8.53;;;15.60;99.90;;;;;;4993523;28;20183;-87
2022/08/30 05:15:42;;;;;;;9.63;8.63;;;15.60;99.90;;;;;;4993377;28;20317;-88
2022/08/30 05:18:09;;;;;;;9.63;8.50;;;15.60;99.90;;;;;;4993424;28;20187;-87
2022/08/30 05:20:37;;;;;;;11.17;8.77;;;15.60;99.90;;;;;;4993461;28;20191;-87
2022/08/30 05:23:04;;;;;;;9.43;8.17;;;15.60;99.90;;;;;;4993354;28;20191;-87
2022/08/30 05:25:37;;;;;;;9.50;8.17;;;15.70;99.90;;;;;;4993014;28;20214;-88
2022/08/30 05:28:04;;;;;;;9.50;8.23;;;15.70;99.90;;;;;;4993139;28;20183;-88
2022/08/30 05:30:32;;;;;;;11.40;8.87;;;15.80;99.90;;;;;;4993048;28;20175;-88
2022/08/30 05:32:59;;;;;;;10.00;8.63;;;15.90;99.90;;;;;;4993409;28;20190;-87
2022/08/30 05:35:25;;;;;;;10.17;9.03;;;16.00;99.90;;;;;;5009732;28;20532;-87
2022/08/30 05:37:52;;;;;;;10.23;8.90;;;16.10;99.90;;;;;;4992957;28;20641;-88
2022/08/30 05:40:17;;;;;;;10.53;9.43;;;16.10;99.90;;;;;;4996751;28;20218;-88
2022/08/30 05:42:45;;;;;;;10.10;9.17;;;16.20;99.90;;;;;;5013529;28;20203;-87
2022/08/30 05:45:12;;;;;;;10.10;9.00;;;16.30;99.90;;;;;;5014865;28;20744;-87
2022/08/30 05:47:38;;;;;;;11.20;9.60;;;16.40;99.90;;;;;;4997046;28;20190;-88
2022/08/30 05:50:08;;;;;;;10.00;9.00;;;16.50;99.90;;;;;;4996956;28;20241;-88
2022/08/30 05:52:39;;;;;;;9.67;8.77;;;16.50;99.90;;;;;;4996584;28;20261;-89
2022/08/30 05:55:06;;;;;;;10.47;9.23;;;16.60;99.90;;;;;;4996807;28;20274;-87
2022/08/30 05:57:34;;;;;;;9.40;8.50;;;16.60;99.90;;;;;;4997050;28;20201;-87
2022/08/30 06:00:13;;;;;;;10.63;8.77;;;16.60;99.90;;;;;;4997059;28;20187;-87
2022/08/30 06:02:40;;;;;;;11.47;9.00;;;16.60;99.90;;;;;;4996353;28;20218;-88
2022/08/30 06:05:07;;;;;;;9.87;8.87;;;16.70;99.90;;;;;;4996489;28;20250;-88
2022/08/30 06:07:34;;;;;;;11.07;9.20;;;16.70;99.90;;;;;;4996815;28;20270;-87
2022/08/30 06:10:00;;;;;;;10.07;9.10;;;16.80;99.90;;;;;;4996551;28;20241;-88
2022/08/30 06:12:26;;;;;;;10.70;9.40;;;16.80;99.90;;;;;;4996669;28;20203;-87
2022/08/30 06:14:52;;;;;;;10.10;9.10;;;16.90;99.90;;;;;;4996546;28;20187;-87
2022/08/30 06:17:18;;;;;;;12.53;9.50;;;16.90;99.90;;;;;;4996542;28;20199;-88
2022/08/30 06:19:43;;;;;;;11.50;10.00;;;17.00;99.90;;;;;;5012583;28;20175;-88
2022/08/30 06:22:09;;;;;;;13.07;8.90;;;17.00;99.90;;;;;;4996910;28;20206;-88
2022/08/30 06:24:35;;;;;;;11.73;9.30;;;17.00;99.90;;;;;;4996388;28;20203;-88
2022/08/30 06:27:01;;;;;;;10.30;9.30;;;17.10;99.90;;;;;;4996341;28;20255;-87
2022/08/30 06:29:27;;;;;;;10.90;9.67;;;17.20;99.90;;;;;;4996459;28;20194;-88
2022/08/30 06:31:56;;;;;;;11.43;9.70;;;17.20;99.90;;;;;;4996378;28;20253;-87
2022/08/30 06:34:22;;;;;;;10.30;9.30;;;17.30;99.90;;;;;;4996059;28;20187;-88
2022/08/30 06:36:48;;;;;;;12.93;9.90;;;17.40;99.90;;;;;;4996196;28;20183;-87
2022/08/30 06:39:14;;;;;;;10.65;9.55;;;17.40;99.90;;;;;;4996630;28;20274;-88
2022/08/30 06:41:40;;;;;;;11.50;10.07;;;17.60;99.90;;;;;;4996494;28;20205;-88
2022/08/30 06:44:20;;;;;;;11.50;9.60;;;17.70;99.90;;;;;;5015898;28;20232;-89
2022/08/30 06:46:46;;;;;;;10.70;9.48;;;17.80;99.90;;;;;;5000904;28;20187;-88
2022/08/30 06:49:12;;;;;;;10.50;9.40;;;17.90;99.90;;;;;;4996081;28;20178;-88
2022/08/30 06:51:39;;;;;;;10.77;9.63;;;18.00;99.90;;;;;;5011306;28;20207;-88
2022/08/30 06:54:06;;;;;;;12.57;10.13;;;18.10;99.90;;;;;;4996040;28;20180;-88
2022/08/30 06:56:32;;;;;;;10.35;9.25;;;18.10;99.90;;;;;;4995876;28;20186;-88
2022/08/30 06:58:58;;;;;;;13.90;9.95;;;18.20;99.90;;;;;;4995995;28;20178;-88
2022/08/30 07:01:26;;;;;;;11.07;9.98;;;18.40;99.90;;;;;;4995464;28;20229;-88
2022/08/30 07:03:54;;;;;;;11.07;9.98;;;18.40;99.90;;;;;;4995700;28;20186;-88
2022/08/30 07:06:21;;;;;;;11.23;10.10;;;18.50;99.90;;;;;;4995650;28;20271;-88
2022/08/30 07:08:49;;;;;;;11.88;10.25;;;18.70;99.90;;;;;;4996066;28;20269;-88
2022/08/30 07:11:23;;;;;;;12.50;9.23;;;18.80;99.90;;;;;;5011941;28;20191;-88
2022/08/30 07:13:49;;;;;;;11.77;9.98;;;18.90;99.90;;;;;;4995457;28;20186;-88
2022/08/30 07:16:15;;;;;;;12.35;10.48;;;19.00;99.90;;;;;;4995762;28;20187;-88
2022/08/30 07:18:50;;;;;;;11.07;9.25;;;19.10;99.90;;;;;;4995618;28;20207;-87
2022/08/30 07:21:18;;;;;;;10.32;9.25;;;19.20;99.90;;;;;;4995408;28;20202;-88
2022/08/30 07:23:47;;;;;;;11.52;9.43;;;19.30;99.90;;;;;;4995527;28;20175;-88
2022/08/30 07:26:17;;;;;;;12.50;10.05;;;19.50;99.90;;;;;;4995124;28;20322;-88
2022/08/30 07:28:44;;;;;;;10.60;9.60;;;19.60;99.90;;;;;;4995598;28;20214;-88
2022/08/30 07:31:14;;;;;;;12.45;9.93;;;19.70;99.90;;;;;;4995114;28;20196;-88
2022/08/30 07:33:41;;;;;;;11.43;9.18;;;19.70;99.90;;;;;;4995234;28;20191;-88
2022/08/30 07:36:07;;;;;;;11.77;9.75;;;19.80;99.90;;;;;;4995335;28;20262;-88
2022/08/30 07:38:33;;;;;;;11.32;9.23;;;19.80;99.90;;;;;;5011336;28;20184;-88
2022/08/30 07:41:00;;;;;;;10.75;9.25;;;19.90;99.90;;;;;;5011164;28;20199;-88
2022/08/30 07:43:30;;;;;;;10.88;9.75;;;20.00;99.90;;;;;;4995034;28;20191;-88
2022/08/30 07:46:00;;;;;;;11.90;9.50;;;20.10;99.90;;;;;;4995208;28;20677;-88
2022/08/30 07:48:26;;;;;;;10.38;9.27;;;20.20;99.90;;;;;;4994842;28;20194;-88
2022/08/30 07:50:52;;;;;;;10.98;9.88;;;20.20;99.90;;;;;;4995118;28;20195;-88
2022/08/30 07:53:18;;;;;;;10.35;9.25;;;20.30;99.90;;;;;;4995133;28;20186;-88
2022/08/30 07:55:44;;;;;;;12.43;10.10;;;20.50;99.90;;;;;;4995526;28;20237;-88
2022/08/30 07:58:10;;;;;;;11.90;10.48;;;20.60;99.90;;;;;;4995626;28;20187;-88
2022/08/30 08:00:36;;;;;;;11.00;9.90;;;20.70;99.90;;;;;;5012070;28;20186;-88
2022/08/30 08:03:06;;;;;;;12.63;10.90;;;20.80;99.90;;;;;;4995756;28;20187;-88
2022/08/30 08:05:42;;;;;;;10.57;9.48;;;20.80;99.90;;;;;;4995917;28;20226;-88
2022/08/30 08:08:08;;;;;;;11.48;8.52;;;21.00;99.90;;;;;;4995022;28;20179;-88
2022/08/30 08:10:39;;;;;;;11.30;9.43;;;21.10;99.90;;;;;;4994677;28;20171;-88
2022/08/30 08:13:05;;;;;;;8.85;7.95;;;21.20;99.90;;;;;;4994721;28;20218;-88
2022/08/30 08:15:32;;;;;;;10.00;9.00;;;21.40;99.90;;;;;;4994350;28;20182;-89
2022/08/30 08:18:00;;;;;;;9.55;8.40;;;21.60;99.90;;;;;;4994513;28;20207;-88
2022/08/30 08:20:26;;;;;;;8.48;7.75;;;21.70;99.90;;;;;;4994127;28;20188;-88
2022/08/30 08:22:52;;;;;;;10.25;9.18;;;22.00;99.90;;;;;;4994301;28;20187;-88
2022/08/30 08:25:18;;;;;;;8.90;8.05;;;22.10;99.90;;;;;;5010462;28;20206;-88
2022/08/30 08:27:49;;;;;;;8.15;7.35;;;22.20;99.90;;;;;;4994162;28;20172;-88
2022/08/30 08:30:17;;;;;;;7.38;6.68;;;22.40;99.90;;;;;;4994357;28;20229;-88
2022/08/30 08:32:43;;;;;;;8.27;7.47;;;22.60;99.90;;;;;;5010460;28;20214;-88
2022/08/30 08:35:10;;;;;;;8.63;7.82;;;22.70;99.90;;;;;;4994009;28;20182;-87
2022/08/30 08:37:37;;;;;;;8.85;7.75;;;22.90;99.90;;;;;;4994009;28;20253;-87
2022/08/30 08:40:05;;;;;;;7.65;6.97;;;23.10;99.90;;;;;;4994354;28;20191;-87
2022/08/30 08:42:49;;;;;;;7.88;7.00;;;23.30;99.90;;;;;;4994121;28;20208;-88
2022/08/30 08:45:28;;;;;;;8.52;7.72;;;23.50;99.90;;;;;;4994183;28;20203;-87
2022/08/30 08:48:02;;;;;;;10.43;9.25;;;23.60;99.90;;;;;;4993849;28;20190;-87
2022/08/30 08:50:28;;;;;;;9.40;7.95;;;23.60;99.90;;;;;;5010228;28;20187;-87
2022/08/30 08:53:34;;;;;;;9.25;8.32;;;23.80;99.90;;;;;;4994240;28;20179;-87
2022/08/30 08:56:02;;;;;;;8.75;7.72;;;23.90;99.90;;;;;;4993923;28;20194;-87
2022/08/30 08:58:34;;;;;;;10.70;9.65;;;24.10;99.90;;;;;;4993664;28;20211;-87
2022/08/30 09:01:00;;;;;;;10.13;9.05;;;24.10;99.90;;;;;;4994178;28;20199;-87
2022/08/30 09:03:28;;;;;;;9.50;8.20;;;24.10;99.90;;;;;;4994003;28;20191;-87
2022/08/30 09:05:54;;;;;;;9.57;8.63;;;24.10;99.90;;;;;;4993753;28;20218;-87
2022/08/30 09:08:26;;;;;;;11.35;9.02;;;24.10;99.90;;;;;;4993256;28;20249;-87
2022/08/30 09:11:15;;;;;;;8.82;7.93;;;24.00;99.90;;;;;;4993492;28;20199;-88
2022/08/30 09:13:41;;;;;;;8.90;7.68;;;24.10;99.90;;;;;;4993450;28;20191;-88
2022/08/30 09:16:07;;;;;;;9.23;7.63;;;24.30;99.90;;;;;;4993830;28;20189;-88
2022/08/30 09:18:46;;;;;;;8.13;7.28;;;24.40;99.90;;;;;;4993654;28;20202;-88
2022/08/30 09:21:19;;;;;;;8.50;7.78;;;24.70;99.90;;;;;;4993665;28;20282;-87
2022/08/30 09:23:54;;;;;;;7.85;7.05;;;24.90;99.90;;;;;;4993600;28;20658;-88
2022/08/30 09:26:35;;;;;;;7.55;6.85;;;25.00;99.90;;;;;;4993489;28;20214;-87
2022/08/30 09:29:03;;;;;;;7.82;6.93;;;25.30;99.90;;;;;;4993828;28;20183;-87
2022/08/30 09:31:52;;;;;;;8.88;6.72;;;25.40;99.90;;;;;;4993418;28;20222;-88
2022/08/30 09:34:22;;;;;;;7.97;6.90;;;25.70;99.90;;;;;;5010466;28;20183;-88
2022/08/30 09:36:52;;;;;;;7.82;6.45;;;25.70;99.90;;;;;;4993664;28;20222;-87
2022/08/30 09:39:32;;;;;;;7.43;6.72;;;25.70;99.90;;;;;;4994101;28;20179;-88
2022/08/30 09:42:24;;;;;;;7.00;6.30;;;25.80;99.90;;;;;;4993426;28;20209;-88
2022/08/30 09:44:52;;;;;;;6.40;5.80;;;26.00;99.90;;;;;;4993065;28;20210;-88
2022/08/30 09:47:26;;;;;;;6.78;5.90;;;26.20;99.90;;;;;;4993125;28;20190;-88
2022/08/30 09:50:06;;;;;;;7.47;5.93;;;26.40;99.90;;;;;;4993455;28;20182;-88
2022/08/30 09:53:14;;;;;;;6.60;6.00;;;26.60;99.90;;;;;;4993297;28;20289;-87
2022/08/30 09:56:01;;;;;;;6.25;5.65;;;26.80;99.90;;;;;;4986294;28;20237;-87
2022/08/30 09:58:54;;;;;;;8.10;5.53;;;26.90;99.90;;;;;;4993093;28;20661;-88
2022/08/30 10:01:57;;;;;;;6.78;5.80;;;27.00;99.90;;;;;;4993398;28;20207;-88
2022/08/30 10:04:53;;;;;;;6.78;6.13;;;27.30;99.90;;;;;;4971878;28;20192;-88
2022/08/30 10:07:29;;;;;;;7.43;5.25;;;27.40;99.90;;;;;;5006403;28;20184;-88
2022/08/30 10:10:00;;;;;;;5.53;5.03;;;27.70;99.90;;;;;;4993512;28;20248;-87
2022/08/30 10:12:34;;;;;;;8.75;4.78;;;27.80;99.90;;;;;;4993173;28;20202;-88
2022/08/30 10:15:22;;;;;;;5.68;5.18;;;27.90;99.90;;;;;;4993225;28;20277;-87
2022/08/30 10:18:24;;;;;;;6.13;5.53;;;28.00;99.90;;;;;;4992940;28;20188;-88
2022/08/30 10:21:11;;;;;;;5.70;5.20;;;28.30;99.90;;;;;;4993372;28;20298;-88
2022/08/30 10:23:49;;;;;;;5.70;5.15;;;28.40;99.90;;;;;;4992914;28;20190;-88
2022/08/30 10:26:48;;;;;;;8.02;5.38;;;28.40;99.90;;;;;;4996226;28;20207;-88
2022/08/30 10:29:33;;;;;;;5.60;5.10;;;28.40;99.90;;;;;;4996926;28;20286;-88
2022/08/30 10:32:24;;;;;;;5.40;4.85;;;28.40;99.90;;;;;;4997126;28;20206;-88
2022/08/30 10:35:00;;;;;;;6.25;5.18;;;28.40;99.90;;;;;;4992757;28;20273;-88
2022/08/30 10:37:30;;;;;;;5.13;4.72;;;28.40;99.90;;;;;;4996846;28;20191;-89
2022/08/30 10:41:11;;;;;;;5.80;4.90;;;28.40;99.90;;;;;;4997924;28;20191;-87
2022/08/30 10:42:50;;;;;;;5.65;5.15;;;28.50;99.90;;;;;;5012453;28;20189;-87
2022/08/30 10:45:17;;;;;;;5.20;4.80;;;28.60;99.90;;;;;;4996335;28;20246;-87
2022/08/30 10:48:12;;;;;;;5.05;4.43;;;28.70;99.90;;;;;;4996432;28;20294;-89
2022/08/30 10:50:44;;;;;;;4.88;4.47;;;28.70;99.90;;;;;;4996342;28;20185;-90
2022/08/30 10:53:21;;;;;;;5.68;5.18;;;28.70;99.90;;;;;;4996733;28;20182;-89
2022/08/30 10:55:52;;;;;;;5.22;4.75;;;28.80;99.90;;;;;;4996293;28;20187;-89
2022/08/30 10:58:18;;;;;;;6.38;4.78;;;28.90;99.90;;;;;;4996373;28;20265;-91
2022/08/30 11:00:52;;;;;;;6.20;5.20;;;28.80;99.90;;;;;;4995762;28;20207;-85
2022/08/30 11:03:38;;;;;;;5.15;4.75;;;28.90;99.90;;;;;;4996660;28;20270;-81
2022/08/30 11:06:04;;;;;;;5.30;4.80;;;29.00;99.90;;;;;;5013563;28;20242;-81
2022/08/30 11:08:33;;;;;;;4.90;4.50;;;28.90;99.90;;;;;;4997366;28;20182;-82
2022/08/30 11:11:26;;;;;;;6.97;4.82;;;28.80;99.90;;;;;;4996866;28;20266;-81
2022/08/30 11:13:53;;;;;;;5.35;4.95;;;28.90;99.90;;;;;;4996786;28;20180;-81
2022/08/30 11:16:31;;;;;;;4.70;4.28;;;29.00;99.90;;;;;;4997056;28;20183;-82
2022/08/30 11:18:57;;;;;;;5.13;4.63;;;29.00;99.90;;;;;;4994683;28;20207;-82
2022/08/30 11:21:38;;;;;;;5.18;4.70;;;29.00;99.90;;;;;;5012629;28;20233;-82
2022/08/30 11:24:22;;;;;;;4.68;4.28;;;29.00;99.90;;;;;;5031438;28;20202;-82
2022/08/30 11:26:56;;;;;;;5.13;4.70;;;29.00;99.90;;;;;;4976746;28;20199;-82
2022/08/30 11:29:28;;;;;;;4.68;4.28;;;29.10;99.90;;;;;;5009171;28;20206;-87
2022/08/30 11:32:19;;;;;;;5.30;4.78;;;29.10;99.90;;;;;;4995630;28;20208;-87
2022/08/30 11:34:47;;;;;;;4.75;4.35;;;29.30;99.90;;;;;;4995478;28;20241;-88
2022/08/30 11:37:36;;;;;;;6.13;4.75;;;29.30;99.90;;;;;;4994850;28;20210;-86
2022/08/30 11:40:10;;;;;;;5.38;4.90;;;29.20;99.90;;;;;;4994685;28;20183;-86
2022/08/30 11:42:40;;;;;;;4.78;4.32;;;29.40;99.90;;;;;;5011825;28;20199;-87
2022/08/30 11:45:26;;;;;;;4.80;4.40;;;29.50;99.90;;;;;;4989193;28;20202;-86
2022/08/30 11:48:43;;;;;;;7.13;4.70;;;29.40;99.90;;;;;;5002035;28;20174;-87
2022/08/30 11:51:51;;;;;;;5.30;4.80;;;29.60;99.90;;;;;;4941811;29;20201;-91
2022/08/30 11:54:51;;;;;;;5.78;4.88;;;29.60;99.90;;;;;;4945589;29;20185;-91
2022/08/30 11:57:36;;;;;;;5.43;4.93;;;29.80;99.90;;;;;;4981285;28;20242;-86
2022/08/30 12:00:26;;;;;;;5.88;4.68;;;29.70;99.90;;;;;;4995983;28;20168;-88
2022/08/30 12:03:05;;;;;;;5.18;4.72;;;29.70;99.90;;;;;;4988918;28;20183;-82
2022/08/30 12:05:38;;;;;;;5.03;4.63;;;29.80;99.90;;;;;;4977588;28;20207;-85
2022/08/30 12:08:10;;;;;;;5.10;4.60;;;29.80;99.90;;;;;;4977590;28;20180;-85
2022/08/30 12:10:45;;;;;;;4.65;4.30;;;29.80;99.90;;;;;;4977338;28;20172;-84
2022/08/30 12:13:33;;;;;;;5.15;4.65;;;29.80;99.90;;;;;;4977281;28;20243;-84
2022/08/30 12:16:23;;;;;;;5.45;4.43;;;30.00;99.90;;;;;;4979200;28;20187;-84
2022/08/30 12:18:59;;;;;;;6.03;4.38;;;30.30;99.90;;;;;;4997422;28;20238;-83
2022/08/30 12:21:32;;;;;;;4.72;4.32;;;30.50;99.90;;;;;;4985360;28;20210;-78
2022/08/30 12:24:08;;;;;;;5.43;4.90;;;30.70;99.90;;;;;;4982193;28;20184;-90
2022/08/30 12:26:42;;;;;;;5.28;4.57;;;30.80;99.90;;;;;;4987309;28;20211;-92
2022/08/30 12:29:17;;;;;;;5.63;5.10;;;30.90;99.90;;;;;;5017452;28;20665;-91
2022/08/30 12:31:55;;;;;;;4.70;4.30;;;30.80;99.90;;;;;;4993600;28;20206;-90
2022/08/30 12:34:37;;;;;;;4.70;4.15;;;31.00;99.90;;;;;;4992647;28;20210;-91
2022/08/30 12:37:09;;;;;;;4.68;4.28;;;30.90;99.30;;;;;;5011696;28;20199;-91
2022/08/30 12:39:42;;;;;;;4.80;4.40;;;30.90;99.40;;;;;;5014808;28;20191;-91
2022/08/30 12:42:24;;;;;;;5.60;4.45;;;31.00;99.60;;;;;;5010383;28;20340;-93
2022/08/30 12:44:53;;;;;;;4.45;4.05;;;31.00;99.30;;;;;;5013375;28;20202;-92
2022/08/30 12:47:38;;;;;;;4.57;3.90;;;31.00;99.00;;;;;;4994383;28;20179;-92
2022/08/30 12:50:06;;;;;;;4.55;4.15;;;31.00;98.40;;;;;;5001195;28;20176;-92
2022/08/30 12:52:42;;;;;;;4.30;4.00;;;31.10;98.00;;;;;;5040137;28;20225;-93
2022/08/30 12:55:19;;;;;;;5.15;4.50;;;31.20;97.30;;;;;;5008856;28;20182;-92
2022/08/30 12:58:08;;;;;;;4.40;4.00;;;31.30;96.70;;;;;;5045190;28;20238;-93
2022/08/30 13:01:13;;;;;;;5.60;4.00;;;31.10;96.80;;;;;;5021355;28;20261;-92
2022/08/30 13:03:56;;;;;;;4.35;3.75;;;31.20;96.10;;;;;;5001952;28;20187;-91
2022/08/30 13:06:57;;;;;;;4.50;4.05;;;31.40;95.90;;;;;;5007376;28;20242;-86